Time,TemperatureF,DewpointF,PressureIn,WindDirection,WindDirectionDegrees,WindSpeedMPH,WindSpeedGustMPH,Humidity,HourlyPrecipIn,Conditions,Clouds,dailyrainin,SoftwareType,DateUTC
2013-06-01 00:02:00,41.9,32.0,17.73,NNE,33,0.0,0.0,28,-99.99,,,-99.99,meteohub,2013-06-01 06:02:00,
2013-06-01 00:07:00,41.5,31.8,17.73,ENE,60,0.0,0.0,28,-99.99,,,-99.99,meteohub,2013-06-01 06:07:00,
2013-06-01 00:12:00,41.5,31.8,17.73,NE,54,3.0,4.0,28,-99.99,,,-99.99,meteohub,2013-06-01 06:12:00,
2013-06-01 00:17:00,41.2,31.6,17.73,NE,51,4.0,4.0,28,-99.99,,,-99.99,meteohub,2013-06-01 06:17:00,
2013-06-01 00:22:00,41.0,31.6,17.73,NE,50,4.0,4.0,28,-99.99,,,-99.99,meteohub,2013-06-01 06:22:00,
2013-06-01 00:27:00,40.6,31.6,17.73,NE,37,0.0,5.0,28,-99.99,,,-99.99,meteohub,2013-06-01 06:27:00,
2013-06-01 00:32:00,40.5,31.6,17.73,NNE,13,0.0,5.0,28,-99.99,,,-99.99,meteohub,2013-06-01 06:32:00,
2013-06-01 00:37:00,40.1,31.5,17.73,ENE,60,3.0,5.0,28,-99.99,,,-99.99,meteohub,2013-06-01 06:37:00,
2013-06-01 00:42:00,39.7,31.5,17.73,NE,49,4.0,4.0,28,-99.99,,,-99.99,meteohub,2013-06-01 06:42:00,
2013-06-01 00:47:00,39.4,31.5,17.73,NNE,22,0.0,5.0,28,-99.99,,,-99.99,meteohub,2013-06-01 06:47:00,
2013-06-01 00:52:00,38.8,31.5,17.73,NNE,22,0.0,5.0,28,-99.99,,,-99.99,meteohub,2013-06-01 06:52:00,
2013-06-01 00:57:00,38.7,30.4,17.73,NNE,20,0.0,5.0,27,-99.99,,,-99.99,meteohub,2013-06-01 06:57:00,
2013-06-01 01:02:00,38.3,30.4,17.73,West,275,0.0,3.0,27,-99.99,,,-99.99,meteohub,2013-06-01 07:02:00,
2013-06-01 01:07:00,38.1,30.4,17.73,West,275,0.0,3.0,27,-99.99,,,-99.99,meteohub,2013-06-01 07:07:00,
2013-06-01 01:12:00,37.4,30.4,17.73,North,-999,-999.0,3.0,27,-99.99,,,-99.99,meteohub,2013-06-01 07:12:00,
2013-06-01 01:17:00,37.4,30.2,17.73,North,-999,-999.0,0.0,27,-99.99,,,-99.99,meteohub,2013-06-01 07:17:00,
2013-06-01 01:22:00,37.6,30.2,17.73,North,-999,-999.0,-999.0,27,-99.99,,,-99.99,meteohub,2013-06-01 07:22:00,
2013-06-01 01:27:00,37.4,30.0,17.73,SSE,163,0.0,0.0,27,-99.99,,,-99.99,meteohub,2013-06-01 07:27:00,
2013-06-01 01:32:00,37.0,30.0,17.73,SSE,162,0.0,0.0,27,-99.99,,,-99.99,meteohub,2013-06-01 07:32:00,
2013-06-01 01:38:00,36.9,30.9,17.73,West,278,0.0,0.0,28,-99.99,,,-99.99,meteohub,2013-06-01 07:38:00,
2013-06-01 01:43:00,36.3,30.7,17.73,WNW,291,0.0,0.0,28,-99.99,,,-99.99,meteohub,2013-06-01 07:43:00,
2013-06-01 01:48:00,36.1,30.7,17.73,West,262,0.0,0.0,28,-99.99,,,-99.99,meteohub,2013-06-01 07:48:00,
2013-06-01 01:53:00,35.6,30.7,17.73,West,268,0.0,0.0,28,-99.99,,,-99.99,meteohub,2013-06-01 07:53:00,
2013-06-01 01:58:00,35.1,30.7,17.73,West,268,0.0,0.0,28,-99.99,,,-99.99,meteohub,2013-06-01 07:58:00,
2013-06-01 02:03:00,33.6,29.7,17.73,West,268,0.0,0.0,27,-99.99,,,-99.99,meteohub,2013-06-01 08:03:00,
2013-06-01 02:09:00,33.8,29.7,17.73,West,268,0.0,0.0,27,-99.99,,,-99.99,meteohub,2013-06-01 08:09:00,
2013-06-01 02:14:00,34.2,30.4,17.73,West,268,0.0,0.0,28,-99.99,,,-99.99,meteohub,2013-06-01 08:14:00,
2013-06-01 02:19:00,34.0,30.4,17.73,West,268,0.0,0.0,28,-99.99,,,-99.99,meteohub,2013-06-01 08:19:00,
2013-06-01 02:24:00,33.1,30.4,17.73,SW,225,0.0,0.0,28,-99.99,,,-99.99,meteohub,2013-06-01 08:24:00,
2013-06-01 02:29:00,32.2,30.2,17.73,SW,225,0.0,0.0,28,-99.99,,,-99.99,meteohub,2013-06-01 08:29:00,
2013-06-01 02:34:00,32.5,30.2,17.73,SW,225,0.0,0.0,28,-99.99,,,-99.99,meteohub,2013-06-01 08:34:00,
2013-06-01 02:39:00,32.7,30.2,17.73,WNW,294,0.0,0.0,28,-99.99,,,-99.99,meteohub,2013-06-01 08:39:00,
2013-06-01 02:45:00,32.7,30.2,17.73,WNW,290,0.0,0.0,28,-99.99,,,-99.99,meteohub,2013-06-01 08:45:00,
2013-06-01 02:50:00,32.5,30.2,17.73,WNW,295,0.0,0.0,28,-99.99,,,-99.99,meteohub,2013-06-01 08:50:00,
2013-06-01 02:55:00,32.4,30.0,17.73,WSW,256,0.0,0.0,28,-99.99,,,-99.99,meteohub,2013-06-01 08:55:00,
2013-06-01 03:00:00,32.2,30.0,17.73,NW,309,0.0,0.0,28,-99.99,,,-99.99,meteohub,2013-06-01 09:00:00,
2013-06-01 03:05:00,31.8,30.0,17.73,NW,309,0.0,4.0,28,-99.99,,,-99.99,meteohub,2013-06-01 09:05:00,
2013-06-01 03:10:00,31.5,29.8,17.73,WNW,295,0.0,4.0,28,-99.99,,,-99.99,meteohub,2013-06-01 09:10:00,
2013-06-01 03:15:00,31.3,29.8,17.73,WNW,283,0.0,0.0,28,-99.99,,,-99.99,meteohub,2013-06-01 09:15:00,
2013-06-01 03:21:00,31.1,29.7,17.73,WNW,291,0.0,0.0,28,-99.99,,,-99.99,meteohub,2013-06-01 09:21:00,
2013-06-01 03:26:00,30.4,29.7,17.73,WNW,291,0.0,0.0,28,-99.99,,,-99.99,meteohub,2013-06-01 09:26:00,
2013-06-01 03:31:00,30.0,29.5,17.73,WNW,291,0.0,0.0,28,-99.99,,,-99.99,meteohub,2013-06-01 09:31:00,
2013-06-01 03:36:00,30.2,29.5,17.73,North,-999,-999.0,0.0,28,-99.99,,,-99.99,meteohub,2013-06-01 09:36:00,
2013-06-01 03:41:00,30.2,29.7,17.73,WNW,291,0.0,0.0,28,-99.99,,,-99.99,meteohub,2013-06-01 09:41:00,
2013-06-01 03:46:00,30.2,30.0,17.73,WNW,291,0.0,0.0,28,-99.99,,,-99.99,meteohub,2013-06-01 09:46:00,
2013-06-01 03:52:00,30.2,28.9,17.73,WNW,291,0.0,0.0,27,-99.99,,,-99.99,meteohub,2013-06-01 09:52:00,
2013-06-01 03:57:00,30.2,28.9,17.73,WNW,291,0.0,0.0,27,-99.99,,,-99.99,meteohub,2013-06-01 09:57:00,
2013-06-01 04:02:00,29.8,28.9,17.73,WNW,291,0.0,0.0,27,-99.99,,,-99.99,meteohub,2013-06-01 10:02:00,
2013-06-01 04:07:00,29.5,28.8,17.73,WNW,291,0.0,0.0,27,-99.99,,,-99.99,meteohub,2013-06-01 10:07:00,
2013-06-01 04:12:00,29.5,28.6,17.73,WNW,291,0.0,0.0,27,-99.99,,,-99.99,meteohub,2013-06-01 10:12:00,
2013-06-01 04:17:00,29.5,28.6,17.73,WNW,291,0.0,0.0,27,-99.99,,,-99.99,meteohub,2013-06-01 10:17:00,
2013-06-01 04:22:00,29.1,28.8,17.73,WNW,291,0.0,0.0,27,-99.99,,,-99.99,meteohub,2013-06-01 10:22:00,
2013-06-01 04:28:00,29.1,28.9,17.73,WNW,291,0.0,0.0,27,-99.99,,,-99.99,meteohub,2013-06-01 10:28:00,
2013-06-01 04:33:00,28.0,28.9,17.73,SSW,211,0.0,0.0,27,-99.99,,,-99.99,meteohub,2013-06-01 10:33:00,
2013-06-01 04:38:00,27.9,28.8,17.73,North,-999,-999.0,0.0,27,-99.99,,,-99.99,meteohub,2013-06-01 10:38:00,
2013-06-01 04:43:00,28.2,28.6,17.73,West,281,0.0,0.0,27,-99.99,,,-99.99,meteohub,2013-06-01 10:43:00,
2013-06-01 04:48:00,28.4,28.4,17.73,WNW,283,0.0,4.0,27,-99.99,,,-99.99,meteohub,2013-06-01 10:48:00,
2013-06-01 04:53:00,28.4,28.4,17.73,North,-999,-999.0,4.0,27,-99.99,,,-99.99,meteohub,2013-06-01 10:53:00,
2013-06-01 04:59:00,28.2,28.8,17.73,North,-999,-999.0,4.0,27,-99.99,,,-99.99,meteohub,2013-06-01 10:59:00,
2013-06-01 05:04:00,28.0,28.9,17.73,North,-999,-999.0,0.0,27,-99.99,,,-99.99,meteohub,2013-06-01 11:04:00,
2013-06-01 05:09:00,27.9,28.9,17.73,WNW,283,0.0,0.0,27,-99.99,,,-99.99,meteohub,2013-06-01 11:09:00,
2013-06-01 05:14:00,27.7,28.8,17.73,WNW,283,0.0,0.0,27,-99.99,,,-99.99,meteohub,2013-06-01 11:14:00,
2013-06-01 05:19:00,27.9,28.6,17.73,WNW,301,0.0,0.0,27,-99.99,,,-99.99,meteohub,2013-06-01 11:19:00,
2013-06-01 05:25:00,28.0,28.4,17.73,NW,310,0.0,0.0,27,-99.99,,,-99.99,meteohub,2013-06-01 11:25:00,
2013-06-01 05:30:00,28.6,28.4,17.73,NW,310,0.0,0.0,27,-99.99,,,-99.99,meteohub,2013-06-01 11:30:00,
2013-06-01 05:35:00,29.1,28.9,17.73,NW,310,0.0,0.0,27,-99.99,,,-99.99,meteohub,2013-06-01 11:35:00,
2013-06-01 05:40:00,29.1,28.9,17.73,NW,310,0.0,0.0,27,-99.99,,,-99.99,meteohub,2013-06-01 11:40:00,
2013-06-01 05:45:00,29.3,28.8,17.73,NW,310,0.0,0.0,27,-99.99,,,-99.99,meteohub,2013-06-01 11:45:00,
2013-06-01 05:51:00,29.1,28.6,17.73,NW,310,0.0,0.0,27,-99.99,,,-99.99,meteohub,2013-06-01 11:51:00,
2013-06-01 05:56:00,29.1,28.4,17.73,NW,310,0.0,0.0,27,-99.99,,,-99.99,meteohub,2013-06-01 11:56:00,
2013-06-01 06:01:00,28.9,28.4,17.73,NW,310,0.0,0.0,27,-99.99,,,-99.99,meteohub,2013-06-01 12:01:00,
2013-06-01 06:06:00,28.6,28.9,17.73,NW,310,0.0,0.0,27,-99.99,,,-99.99,meteohub,2013-06-01 12:06:00,
2013-06-01 06:11:00,28.4,29.5,17.73,NW,310,0.0,0.0,27,-99.99,,,-99.99,meteohub,2013-06-01 12:11:00,
2013-06-01 06:17:00,28.4,29.7,17.73,NW,308,0.0,0.0,27,-99.99,,,-99.99,meteohub,2013-06-01 12:17:00,
2013-06-01 06:22:00,28.6,29.7,17.73,West,272,0.0,0.0,27,-99.99,,,-99.99,meteohub,2013-06-01 12:22:00,
2013-06-01 06:27:00,28.8,29.7,17.73,West,280,0.0,0.0,27,-99.99,,,-99.99,meteohub,2013-06-01 12:27:00,
2013-06-01 06:32:00,29.1,29.8,17.73,WNW,300,0.0,0.0,27,-99.99,,,-99.99,meteohub,2013-06-01 12:32:00,
2013-06-01 06:37:00,29.5,30.4,17.73,WNW,283,0.0,0.0,27,-99.99,,,-99.99,meteohub,2013-06-01 12:37:00,
2013-06-01 06:42:00,29.7,30.6,17.73,WNW,283,0.0,0.0,27,-99.99,,,-99.99,meteohub,2013-06-01 12:42:00,
2013-06-01 06:47:00,30.2,30.7,17.73,WNW,284,0.0,0.0,27,-99.99,,,-99.99,meteohub,2013-06-01 12:47:00,
2013-06-01 06:52:00,30.6,31.1,17.73,WNW,284,0.0,0.0,27,-99.99,,,-99.99,meteohub,2013-06-01 12:52:00,
2013-06-01 06:57:00,30.9,30.4,17.73,SW,219,0.0,0.0,26,-99.99,,,-99.99,meteohub,2013-06-01 12:57:00,
2013-06-01 07:03:00,31.5,30.4,17.73,West,276,0.0,0.0,26,-99.99,,,-99.99,meteohub,2013-06-01 13:03:00,
2013-06-01 07:08:00,32.0,30.6,17.73,West,276,0.0,0.0,26,-99.99,,,-99.99,meteohub,2013-06-01 13:08:00,
2013-06-01 07:13:00,32.5,30.7,17.73,WNW,290,0.0,0.0,26,-99.99,,,-99.99,meteohub,2013-06-01 13:13:00,
2013-06-01 07:18:00,32.9,30.9,17.73,WSW,246,0.0,0.0,26,-99.99,,,-99.99,meteohub,2013-06-01 13:18:00,
2013-06-01 07:23:00,33.6,31.3,17.73,SSE,150,0.0,0.0,26,-99.99,,,-99.99,meteohub,2013-06-01 13:23:00,
2013-06-01 07:29:00,34.0,31.5,17.73,SSE,162,0.0,0.0,26,-99.99,,,-99.99,meteohub,2013-06-01 13:29:00,
2013-06-01 07:34:00,34.5,31.5,17.73,SE,136,0.0,0.0,26,-99.99,,,-99.99,meteohub,2013-06-01 13:34:00,
2013-06-01 07:39:00,35.1,31.6,17.73,SE,128,0.0,0.0,26,-99.99,,,-99.99,meteohub,2013-06-01 13:39:00,
2013-06-01 07:44:00,35.8,31.8,17.73,NE,42,0.0,0.0,26,-99.99,,,-99.99,meteohub,2013-06-01 13:44:00,
2013-06-01 07:49:00,37.0,32.2,17.73,North,357,0.0,0.0,26,-99.99,,,-99.99,meteohub,2013-06-01 13:49:00,
2013-06-01 07:54:00,38.1,32.4,17.73,North,357,2.0,0.0,26,-99.99,,,-99.99,meteohub,2013-06-01 13:54:00,
2013-06-01 08:00:00,39.0,32.4,17.73,NNE,26,0.0,5.0,26,-99.99,,,-99.99,meteohub,2013-06-01 14:00:00,
2013-06-01 08:05:00,39.7,32.4,17.73,North,8,2.0,5.0,26,-99.99,,,-99.99,meteohub,2013-06-01 14:05:00,
2013-06-01 08:10:00,40.5,32.5,17.73,SW,236,3.0,5.0,26,-99.99,,,-99.99,meteohub,2013-06-01 14:10:00,
2013-06-01 08:15:00,41.7,32.7,17.73,NE,44,4.0,5.0,26,-99.99,,,-99.99,meteohub,2013-06-01 14:15:00,
2013-06-01 08:20:00,42.8,32.7,17.73,ENE,69,3.0,5.0,26,-99.99,,,-99.99,meteohub,2013-06-01 14:20:00,
2013-06-01 08:25:00,43.7,32.9,17.73,NNE,33,4.0,6.0,26,-99.99,,,-99.99,meteohub,2013-06-01 14:25:00,
2013-06-01 08:31:00,44.6,33.1,17.73,NNW,343,3.0,6.0,26,-99.99,,,-99.99,meteohub,2013-06-01 14:31:00,
2013-06-01 08:36:00,45.3,33.3,17.73,NNW,335,5.0,8.0,26,-99.99,,,-99.99,meteohub,2013-06-01 14:36:00,
2013-06-01 08:41:00,45.9,32.4,17.73,NNE,33,4.0,8.0,25,-99.99,,,-99.99,meteohub,2013-06-01 14:41:00,
2013-06-01 08:46:00,46.4,32.5,17.73,SSE,154,3.0,6.0,25,-99.99,,,-99.99,meteohub,2013-06-01 14:46:00,
2013-06-01 08:51:00,47.1,32.7,17.73,NE,46,4.0,8.0,25,-99.99,,,-99.99,meteohub,2013-06-01 14:51:00,
2013-06-01 08:56:00,47.7,32.7,17.73,NE,48,6.0,8.0,25,-99.99,,,-99.99,meteohub,2013-06-01 14:56:00,
2013-06-01 09:01:00,48.6,32.9,17.73,ENE,57,6.0,8.0,25,-99.99,,,-99.99,meteohub,2013-06-01 15:01:00,
2013-06-01 09:07:00,48.9,33.1,17.73,NE,48,8.0,8.0,25,-99.99,,,-99.99,meteohub,2013-06-01 15:07:00,
2013-06-01 09:12:00,49.3,33.1,17.73,ENE,73,6.0,11.0,25,-99.99,,,-99.99,meteohub,2013-06-01 15:12:00,
2013-06-01 09:17:00,49.8,33.1,17.73,NNW,343,4.0,11.0,25,-99.99,,,-99.99,meteohub,2013-06-01 15:17:00,
2013-06-01 09:22:00,50.4,33.1,17.73,ENE,62,6.0,11.0,25,-99.99,,,-99.99,meteohub,2013-06-01 15:22:00,
2013-06-01 09:27:00,50.7,33.1,17.73,ENE,61,6.0,10.0,25,-99.99,,,-99.99,meteohub,2013-06-01 15:27:00,
2013-06-01 09:32:00,51.4,33.1,17.73,ENE,57,4.0,10.0,25,-99.99,,,-99.99,meteohub,2013-06-01 15:32:00,
2013-06-01 09:37:00,52.2,32.7,17.73,NE,42,3.0,10.0,25,-99.99,,,-99.99,meteohub,2013-06-01 15:37:00,
2013-06-01 09:42:00,52.0,32.5,17.73,North,6,4.0,10.0,25,-99.99,,,-99.99,meteohub,2013-06-01 15:42:00,
2013-06-01 09:47:00,52.3,32.4,17.73,ENE,74,3.0,6.0,25,-99.99,,,-99.99,meteohub,2013-06-01 15:47:00,
2013-06-01 09:52:00,52.9,33.3,17.73,ENE,70,4.0,6.0,26,-99.99,,,-99.99,meteohub,2013-06-01 15:52:00,
2013-06-01 09:57:00,53.2,33.3,17.73,North,353,3.0,6.0,26,-99.99,,,-99.99,meteohub,2013-06-01 15:57:00,
2013-06-01 10:02:00,53.6,33.1,17.73,SE,142,3.0,6.0,26,-99.99,,,-99.99,meteohub,2013-06-01 16:02:00,
2013-06-01 10:07:00,53.8,32.9,17.73,West,277,3.0,6.0,26,-99.99,,,-99.99,meteohub,2013-06-01 16:07:00,
2013-06-01 10:12:00,54.1,32.9,17.73,West,280,3.0,6.0,26,-99.99,,,-99.99,meteohub,2013-06-01 16:12:00,
2013-06-01 10:17:00,54.7,32.7,17.73,ENE,57,6.0,6.0,26,-99.99,,,-99.99,meteohub,2013-06-01 16:17:00,
2013-06-01 10:22:00,55.2,32.7,17.73,NE,40,5.0,7.0,26,-99.99,,,-99.99,meteohub,2013-06-01 16:22:00,
2013-06-01 10:27:00,55.9,32.5,17.73,WSW,245,4.0,7.0,26,-99.99,,,-99.99,meteohub,2013-06-01 16:27:00,
2013-06-01 10:32:00,56.7,32.5,17.73,NE,40,3.0,7.0,26,-99.99,,,-99.99,meteohub,2013-06-01 16:32:00,
2013-06-01 10:37:00,56.3,32.4,17.73,NE,55,2.0,5.0,26,-99.99,,,-99.99,meteohub,2013-06-01 16:37:00,
2013-06-01 10:42:00,55.8,32.4,17.73,East,83,5.0,6.0,26,-99.99,,,-99.99,meteohub,2013-06-01 16:42:00,
2013-06-01 10:47:00,55.4,32.4,17.73,ESE,108,2.0,6.0,26,-99.99,,,-99.99,meteohub,2013-06-01 16:47:00,
2013-06-01 10:52:00,55.8,32.4,17.73,SE,129,0.0,6.0,26,-99.99,,,-99.99,meteohub,2013-06-01 16:52:00,
2013-06-01 10:57:00,56.3,32.2,17.73,ENE,74,4.0,6.0,26,-99.99,,,-99.99,meteohub,2013-06-01 16:57:00,
2013-06-01 11:02:00,56.1,32.2,17.73,SE,126,4.0,4.0,26,-99.99,,,-99.99,meteohub,2013-06-01 17:02:00,
2013-06-01 11:07:00,55.9,32.0,17.73,ESE,123,4.0,5.0,26,-99.99,,,-99.99,meteohub,2013-06-01 17:07:00,
2013-06-01 11:12:00,55.8,32.0,17.73,SW,218,6.0,6.0,26,-99.99,,,-99.99,meteohub,2013-06-01 17:12:00,
2013-06-01 11:17:00,55.8,32.0,17.73,SSE,164,3.0,6.0,26,-99.99,,,-99.99,meteohub,2013-06-01 17:17:00,
2013-06-01 11:22:00,55.8,32.0,17.73,SW,218,5.0,6.0,26,-99.99,,,-99.99,meteohub,2013-06-01 17:22:00,
2013-06-01 11:27:00,57.7,31.8,17.73,NNW,346,0.0,6.0,26,-99.99,,,-99.99,meteohub,2013-06-01 17:27:00,
2013-06-01 11:32:00,58.1,31.8,17.73,NW,317,5.0,6.0,26,-99.99,,,-99.99,meteohub,2013-06-01 17:32:00,
2013-06-01 11:37:00,60.1,31.8,17.73,SW,232,0.0,9.0,26,-99.99,,,-99.99,meteohub,2013-06-01 17:37:00,
2013-06-01 11:42:00,60.6,31.8,17.73,NW,324,0.0,9.0,26,-99.99,,,-99.99,meteohub,2013-06-01 17:42:00,
2013-06-01 11:47:00,62.6,31.8,17.73,WNW,286,0.0,6.0,26,-99.99,,,-99.99,meteohub,2013-06-01 17:47:00,
2013-06-01 11:52:00,61.9,31.6,17.73,SE,141,3.0,7.0,26,-99.99,,,-99.99,meteohub,2013-06-01 17:52:00,
2013-06-01 11:57:00,60.1,31.6,17.73,SE,124,5.0,8.0,26,-99.99,,,-99.99,meteohub,2013-06-01 17:57:00,
2013-06-01 12:02:00,58.6,31.6,17.73,SSW,208,4.0,8.0,26,-99.99,,,-99.99,meteohub,2013-06-01 18:02:00,
2013-06-01 12:07:00,59.2,31.5,17.73,SSW,213,4.0,6.0,26,-99.99,,,-99.99,meteohub,2013-06-01 18:07:00,
2013-06-01 12:12:00,59.4,31.5,17.73,SE,128,4.0,6.0,26,-99.99,,,-99.99,meteohub,2013-06-01 18:12:00,
2013-06-01 12:17:00,59.0,31.5,17.73,SSW,202,5.0,6.0,26,-99.99,,,-99.99,meteohub,2013-06-01 18:17:00,
2013-06-01 12:22:00,57.9,31.5,17.73,SW,230,6.0,6.0,26,-99.99,,,-99.99,meteohub,2013-06-01 18:22:00,
2013-06-01 12:27:00,58.1,31.5,17.73,SW,222,8.0,11.0,26,-99.99,,,-99.99,meteohub,2013-06-01 18:27:00,
2013-06-01 12:32:00,58.5,31.5,17.73,SW,224,9.0,11.0,26,-99.99,,,-99.99,meteohub,2013-06-01 18:32:00,
2013-06-01 12:37:00,59.9,31.5,17.73,SSW,210,4.0,9.0,26,-99.99,,,-99.99,meteohub,2013-06-01 18:37:00,
2013-06-01 12:42:00,59.7,31.5,17.73,SSW,199,6.0,9.0,26,-99.99,,,-99.99,meteohub,2013-06-01 18:42:00,
2013-06-01 12:47:00,59.2,31.5,17.73,SE,137,5.0,9.0,26,-99.99,,,-99.99,meteohub,2013-06-01 18:47:00,
2013-06-01 12:53:00,59.5,31.5,17.73,SW,223,6.0,9.0,26,-99.99,,,-99.99,meteohub,2013-06-01 18:53:00,
2013-06-01 12:58:00,59.4,31.5,17.73,South,189,4.0,9.0,26,-99.99,,,-99.99,meteohub,2013-06-01 18:58:00,
2013-06-01 13:03:00,59.7,31.5,17.73,SSW,202,6.0,8.0,26,-99.99,,,-99.99,meteohub,2013-06-01 19:03:00,
2013-06-01 13:08:00,59.4,31.5,17.73,South,170,6.0,6.0,26,-99.99,,,-99.99,meteohub,2013-06-01 19:08:00,
2013-06-01 13:13:00,59.9,31.5,17.73,SSW,200,6.0,6.0,26,-99.99,,,-99.99,meteohub,2013-06-01 19:13:00,
2013-06-01 13:18:00,60.6,31.5,17.73,SSW,208,5.0,8.0,26,-99.99,,,-99.99,meteohub,2013-06-01 19:18:00,
2013-06-01 13:24:00,59.9,31.5,17.73,South,184,4.0,8.0,26,-99.99,,,-99.99,meteohub,2013-06-01 19:24:00,
2013-06-01 13:29:00,59.7,31.5,17.73,SSW,206,4.0,9.0,26,-99.99,,,-99.99,meteohub,2013-06-01 19:29:00,
2013-06-01 13:34:00,60.3,31.5,17.73,SSE,168,6.0,9.0,26,-99.99,,,-99.99,meteohub,2013-06-01 19:34:00,
2013-06-01 13:39:00,60.4,31.5,17.73,SSW,194,4.0,9.0,26,-99.99,,,-99.99,meteohub,2013-06-01 19:39:00,
2013-06-01 13:44:00,60.1,31.5,17.73,SSE,159,5.0,8.0,26,-99.99,,,-99.99,meteohub,2013-06-01 19:44:00,
2013-06-01 13:49:00,60.4,31.5,17.73,SE,141,4.0,8.0,26,-99.99,,,-99.99,meteohub,2013-06-01 19:49:00,
2013-06-01 13:54:00,60.3,31.5,17.73,SSW,208,5.0,7.0,26,-99.99,,,-99.99,meteohub,2013-06-01 19:54:00,
2013-06-01 14:00:00,61.2,31.5,17.73,SSW,208,4.0,8.0,26,-99.99,,,-99.99,meteohub,2013-06-01 20:00:00,
2013-06-01 14:05:00,61.5,31.3,17.73,SW,232,3.0,8.0,26,-99.99,,,-99.99,meteohub,2013-06-01 20:05:00,
2013-06-01 14:10:00,60.8,31.3,17.73,SSE,166,6.0,6.0,26,-99.99,,,-99.99,meteohub,2013-06-01 20:10:00,
2013-06-01 14:15:00,61.2,31.3,17.73,South,173,3.0,11.0,26,-99.99,,,-99.99,meteohub,2013-06-01 20:15:00,
2013-06-01 14:20:00,61.9,31.3,17.73,South,172,4.0,11.0,26,-99.99,,,-99.99,meteohub,2013-06-01 20:20:00,
2013-06-01 14:25:00,62.2,31.3,17.73,South,174,4.0,11.0,26,-99.99,,,-99.99,meteohub,2013-06-01 20:25:00,
2013-06-01 14:30:00,62.2,31.5,17.73,SSW,212,8.0,8.0,26,-99.99,,,-99.99,meteohub,2013-06-01 20:30:00,
2013-06-01 14:36:00,61.3,31.5,17.73,SSW,195,3.0,10.0,26,-99.99,,,-99.99,meteohub,2013-06-01 20:36:00,
2013-06-01 14:41:00,63.3,31.5,17.73,WNW,299,3.0,11.0,26,-99.99,,,-99.99,meteohub,2013-06-01 20:41:00,
2013-06-01 14:46:00,64.9,31.5,17.73,South,174,6.0,11.0,26,-99.99,,,-99.99,meteohub,2013-06-01 20:46:00,
2013-06-01 14:51:00,63.5,31.5,17.73,SE,129,5.0,10.0,26,-99.99,,,-99.99,meteohub,2013-06-01 20:51:00,
2013-06-01 14:56:00,61.7,31.5,17.73,SSW,205,4.0,10.0,26,-99.99,,,-99.99,meteohub,2013-06-01 20:56:00,
2013-06-01 15:01:00,61.5,31.5,17.73,SSW,210,6.0,10.0,26,-99.99,,,-99.99,meteohub,2013-06-01 21:01:00,
2013-06-01 15:07:00,63.9,31.5,17.73,SSW,195,6.0,8.0,26,-99.99,,,-99.99,meteohub,2013-06-01 21:07:00,
2013-06-01 15:12:00,63.7,31.5,17.73,SSE,150,3.0,9.0,26,-99.99,,,-99.99,meteohub,2013-06-01 21:12:00,
2013-06-01 15:17:00,63.1,31.5,17.73,SSW,202,8.0,9.0,26,-99.99,,,-99.99,meteohub,2013-06-01 21:17:00,
2013-06-01 15:22:00,65.3,31.5,17.73,South,184,3.0,9.0,26,-99.99,,,-99.99,meteohub,2013-06-01 21:22:00,
2013-06-01 15:27:00,64.6,31.5,17.73,SSW,196,4.0,9.0,26,-99.99,,,-99.99,meteohub,2013-06-01 21:27:00,
2013-06-01 15:32:00,64.2,31.5,17.73,South,190,5.0,9.0,26,-99.99,,,-99.99,meteohub,2013-06-01 21:32:00,
2013-06-01 15:37:00,65.1,32.5,17.73,SSE,160,6.0,8.0,27,-99.99,,,-99.99,meteohub,2013-06-01 21:37:00,
2013-06-01 15:42:00,65.1,31.5,17.73,ESE,123,0.0,6.0,26,-99.99,,,-99.99,meteohub,2013-06-01 21:42:00,
2013-06-01 15:47:00,66.2,31.5,17.73,SSW,208,5.0,8.0,26,-99.99,,,-99.99,meteohub,2013-06-01 21:47:00,
2013-06-01 15:52:00,67.3,31.5,17.73,SSW,201,8.0,9.0,26,-99.99,,,-99.99,meteohub,2013-06-01 21:52:00,
2013-06-01 15:57:00,66.6,31.5,17.73,WSW,243,6.0,11.0,26,-99.99,,,-99.99,meteohub,2013-06-01 21:57:00,
2013-06-01 16:02:00,62.6,31.5,17.73,SSW,206,6.0,11.0,26,-99.99,,,-99.99,meteohub,2013-06-01 22:02:00,
2013-06-01 16:07:00,63.7,32.5,17.73,West,271,6.0,11.0,27,-99.99,,,-99.99,meteohub,2013-06-01 22:07:00,
2013-06-01 16:12:00,65.5,32.5,17.73,SW,235,8.0,12.0,27,-99.99,,,-99.99,meteohub,2013-06-01 22:12:00,
2013-06-01 16:17:00,67.1,31.6,17.73,WSW,239,8.0,12.0,26,-99.99,,,-99.99,meteohub,2013-06-01 22:17:00,
2013-06-01 16:22:00,63.9,31.6,17.73,South,176,6.0,12.0,26,-99.99,,,-99.99,meteohub,2013-06-01 22:22:00,
2013-06-01 16:27:00,63.3,32.5,17.73,SSW,195,8.0,12.0,27,-99.99,,,-99.99,meteohub,2013-06-01 22:27:00,
2013-06-01 16:32:00,64.8,31.6,17.73,SW,234,8.0,12.0,26,-99.99,,,-99.99,meteohub,2013-06-01 22:32:00,
2013-06-01 16:37:00,65.7,31.8,17.73,SW,226,3.0,12.0,26,-99.99,,,-99.99,meteohub,2013-06-01 22:37:00,
2013-06-01 16:42:00,64.6,31.8,17.73,SSW,208,8.0,11.0,26,-99.99,,,-99.99,meteohub,2013-06-01 22:42:00,
2013-06-01 16:47:00,64.8,31.8,17.73,SSW,203,6.0,13.0,26,-99.99,,,-99.99,meteohub,2013-06-01 22:47:00,
2013-06-01 16:52:00,65.8,31.8,17.73,SSW,211,7.0,13.0,26,-99.99,,,-99.99,meteohub,2013-06-01 22:52:00,
2013-06-01 16:57:00,66.2,31.8,17.73,SSE,164,4.0,10.0,26,-99.99,,,-99.99,meteohub,2013-06-01 22:57:00,
2013-06-01 17:02:00,65.1,31.8,17.73,SSW,192,4.0,10.0,26,-99.99,,,-99.99,meteohub,2013-06-01 23:02:00,
2013-06-01 17:07:00,64.0,31.8,17.73,SE,127,4.0,11.0,26,-99.99,,,-99.99,meteohub,2013-06-01 23:07:00,
2013-06-01 17:12:00,63.5,31.8,17.73,South,172,6.0,11.0,26,-99.99,,,-99.99,meteohub,2013-06-01 23:12:00,
2013-06-01 17:17:00,63.5,32.0,17.73,SSE,168,6.0,11.0,26,-99.99,,,-99.99,meteohub,2013-06-01 23:17:00,
2013-06-01 17:23:00,63.7,32.0,17.73,SSW,209,8.0,9.0,26,-99.99,,,-99.99,meteohub,2013-06-01 23:23:00,
2013-06-01 17:28:00,62.1,32.0,17.73,SSW,206,10.0,13.0,26,-99.99,,,-99.99,meteohub,2013-06-01 23:28:00,
2013-06-01 17:33:00,62.1,32.2,17.73,SW,214,9.0,13.0,26,-99.99,,,-99.99,meteohub,2013-06-01 23:33:00,
2013-06-01 17:38:00,62.8,32.0,17.73,SSW,198,6.0,13.0,26,-99.99,,,-99.99,meteohub,2013-06-01 23:38:00,
2013-06-01 17:43:00,62.2,32.0,17.73,SSW,203,10.0,11.0,26,-99.99,,,-99.99,meteohub,2013-06-01 23:43:00,
2013-06-01 17:48:00,62.2,32.2,17.73,SSW,196,8.0,12.0,26,-99.99,,,-99.99,meteohub,2013-06-01 23:48:00,
2013-06-01 17:53:00,62.8,32.2,17.73,SSW,213,8.0,12.0,26,-99.99,,,-99.99,meteohub,2013-06-01 23:53:00,
2013-06-01 17:59:00,63.1,32.2,17.73,SE,144,8.0,12.0,26,-99.99,,,-99.99,meteohub,2013-06-01 23:59:00,
2013-06-01 18:04:00,62.2,32.2,17.73,South,175,7.0,12.0,26,-99.99,,,-99.99,meteohub,2013-06-02 00:04:00,
2013-06-01 18:09:00,62.2,32.2,17.73,SSW,194,5.0,10.0,26,-99.99,,,-99.99,meteohub,2013-06-02 00:09:00,
2013-06-01 18:14:00,61.9,32.2,17.73,SSE,158,9.0,10.0,26,-99.99,,,-99.99,meteohub,2013-06-02 00:14:00,
2013-06-01 18:19:00,61.7,32.2,17.73,SSE,154,6.0,10.0,26,-99.99,,,-99.99,meteohub,2013-06-02 00:19:00,
2013-06-01 18:24:00,61.9,32.2,17.73,SSE,156,4.0,10.0,26,-99.99,,,-99.99,meteohub,2013-06-02 00:24:00,
2013-06-01 18:30:00,62.2,32.2,17.73,SSE,164,7.0,10.0,26,-99.99,,,-99.99,meteohub,2013-06-02 00:30:00,
2013-06-01 18:35:00,62.2,32.4,17.73,SSE,153,6.0,9.0,26,-99.99,,,-99.99,meteohub,2013-06-02 00:35:00,
2013-06-01 18:40:00,61.7,32.4,17.73,South,186,5.0,9.0,26,-99.99,,,-99.99,meteohub,2013-06-02 00:40:00,
2013-06-01 18:45:00,61.3,32.4,17.73,SSE,161,5.0,9.0,26,-99.99,,,-99.99,meteohub,2013-06-02 00:45:00,
2013-06-01 18:50:00,61.2,31.3,17.73,SSE,153,5.0,9.0,25,-99.99,,,-99.99,meteohub,2013-06-02 00:50:00,
2013-06-01 18:55:00,61.2,32.4,17.73,South,179,3.0,8.0,26,-99.99,,,-99.99,meteohub,2013-06-02 00:55:00,
2013-06-01 19:00:00,61.2,32.4,17.73,SSE,159,5.0,7.0,26,-99.99,,,-99.99,meteohub,2013-06-02 01:00:00,
2013-06-01 19:05:00,61.0,32.2,17.73,SSE,156,5.0,6.0,26,-99.99,,,-99.99,meteohub,2013-06-02 01:05:00,
2013-06-01 19:11:00,60.6,31.1,17.73,SSE,156,4.0,8.0,25,-99.99,,,-99.99,meteohub,2013-06-02 01:11:00,
2013-06-01 19:16:00,60.6,31.1,17.73,SSE,147,5.0,8.0,25,-99.99,,,-99.99,meteohub,2013-06-02 01:16:00,
2013-06-01 19:21:00,60.6,32.2,17.73,SSE,154,5.0,8.0,26,-99.99,,,-99.99,meteohub,2013-06-02 01:21:00,
2013-06-01 19:26:00,60.3,32.2,17.73,SE,141,3.0,6.0,26,-99.99,,,-99.99,meteohub,2013-06-02 01:26:00,
2013-06-01 19:31:00,59.9,32.4,17.73,SSE,165,4.0,6.0,26,-99.99,,,-99.99,meteohub,2013-06-02 01:31:00,
2013-06-01 19:36:00,59.4,32.4,17.73,SSE,156,4.0,8.0,26,-99.99,,,-99.99,meteohub,2013-06-02 01:36:00,
2013-06-01 19:42:00,59.2,32.4,17.73,SSE,155,5.0,8.0,26,-99.99,,,-99.99,meteohub,2013-06-02 01:42:00,
2013-06-01 19:47:00,58.8,32.2,17.73,SSE,155,3.0,8.0,26,-99.99,,,-99.99,meteohub,2013-06-02 01:47:00,
2013-06-01 19:52:00,58.6,32.2,17.73,SSE,151,3.0,7.0,26,-99.99,,,-99.99,meteohub,2013-06-02 01:52:00,
2013-06-01 19:57:00,58.5,32.2,17.73,SSE,151,3.0,6.0,26,-99.99,,,-99.99,meteohub,2013-06-02 01:57:00,
2013-06-01 20:02:00,58.1,32.2,17.73,SSE,151,3.0,5.0,26,-99.99,,,-99.99,meteohub,2013-06-02 02:02:00,
2013-06-01 20:07:00,57.9,32.0,17.73,SSE,151,0.0,4.0,26,-99.99,,,-99.99,meteohub,2013-06-02 02:07:00,
2013-06-01 20:12:00,57.7,32.0,17.73,SSE,151,0.0,4.0,26,-99.99,,,-99.99,meteohub,2013-06-02 02:12:00,
2013-06-01 20:17:00,57.6,32.0,17.73,SSE,151,0.0,4.0,26,-99.99,,,-99.99,meteohub,2013-06-02 02:17:00,
2013-06-01 20:22:00,57.2,32.0,17.73,SSE,151,0.0,0.0,26,-99.99,,,-99.99,meteohub,2013-06-02 02:22:00,
2013-06-01 20:27:00,56.8,32.0,17.73,SSE,151,0.0,0.0,26,-99.99,,,-99.99,meteohub,2013-06-02 02:27:00,
2013-06-01 20:32:00,56.7,32.0,17.73,SSE,151,0.0,0.0,26,-99.99,,,-99.99,meteohub,2013-06-02 02:32:00,
2013-06-01 20:37:00,56.5,32.0,17.73,SSE,151,0.0,0.0,26,-99.99,,,-99.99,meteohub,2013-06-02 02:37:00,
2013-06-01 20:42:00,55.9,32.0,17.73,SSE,151,0.0,0.0,26,-99.99,,,-99.99,meteohub,2013-06-02 02:42:00,
2013-06-01 20:47:00,55.6,32.0,17.73,SSE,151,0.0,0.0,26,-99.99,,,-99.99,meteohub,2013-06-02 02:47:00,
2013-06-01 20:52:00,55.0,31.8,17.73,SSE,151,0.0,0.0,26,-99.99,,,-99.99,meteohub,2013-06-02 02:52:00,
2013-06-01 20:57:00,54.5,31.8,17.73,SSE,151,0.0,0.0,26,-99.99,,,-99.99,meteohub,2013-06-02 02:57:00,
2013-06-01 21:02:00,54.0,31.8,17.73,SSE,151,0.0,0.0,26,-99.99,,,-99.99,meteohub,2013-06-02 03:02:00,
2013-06-01 21:07:00,54.0,32.5,17.73,SSE,151,0.0,0.0,27,-99.99,,,-99.99,meteohub,2013-06-02 03:07:00,
2013-06-01 21:12:00,54.3,32.5,17.73,SSE,151,0.0,0.0,27,-99.99,,,-99.99,meteohub,2013-06-02 03:12:00,
2013-06-01 21:17:00,54.0,32.5,17.73,SSE,151,0.0,0.0,27,-99.99,,,-99.99,meteohub,2013-06-02 03:17:00,
2013-06-01 21:22:00,52.7,32.5,17.73,SSE,151,0.0,0.0,27,-99.99,,,-99.99,meteohub,2013-06-02 03:22:00,
2013-06-01 21:27:00,52.0,32.5,17.73,SSE,151,0.0,0.0,27,-99.99,,,-99.99,meteohub,2013-06-02 03:27:00,
2013-06-01 21:32:00,51.4,32.5,17.73,West,268,0.0,0.0,27,-99.99,,,-99.99,meteohub,2013-06-02 03:32:00,
2013-06-01 21:37:00,51.4,32.5,17.73,West,268,0.0,0.0,27,-99.99,,,-99.99,meteohub,2013-06-02 03:37:00,
2013-06-01 21:42:00,51.4,32.5,17.73,West,268,0.0,0.0,27,-99.99,,,-99.99,meteohub,2013-06-02 03:42:00,
2013-06-01 21:47:00,51.1,32.5,17.73,West,268,0.0,0.0,27,-99.99,,,-99.99,meteohub,2013-06-02 03:47:00,
2013-06-01 21:52:00,50.4,32.5,17.73,West,268,0.0,0.0,27,-99.99,,,-99.99,meteohub,2013-06-02 03:52:00,
2013-06-01 21:57:00,50.5,32.5,17.73,West,268,0.0,0.0,27,-99.99,,,-99.99,meteohub,2013-06-02 03:57:00,
2013-06-01 22:01:00,50.4,32.5,17.73,West,268,0.0,0.0,27,-99.99,,,-99.99,meteohub,2013-06-02 04:01:00,
2013-06-01 22:02:00,50.4,32.5,17.73,West,268,0.0,0.0,27,-99.99,,,-99.99,meteohub,2013-06-02 04:02:00,
2013-06-01 22:03:00,50.4,32.5,17.73,West,268,0.0,0.0,27,-99.99,,,-99.99,meteohub,2013-06-02 04:03:00,
2013-06-01 22:08:00,50.2,32.5,17.73,West,268,3.0,0.0,27,-99.99,,,-99.99,meteohub,2013-06-02 04:08:00,
2013-06-01 22:13:00,49.8,32.5,17.73,WNW,303,3.0,4.0,27,-99.99,,,-99.99,meteohub,2013-06-02 04:13:00,
2013-06-01 22:18:00,49.5,32.5,17.73,NW,306,3.0,5.0,27,-99.99,,,-99.99,meteohub,2013-06-02 04:18:00,
2013-06-01 22:23:00,48.9,31.8,17.73,NW,306,0.0,5.0,26,-99.99,,,-99.99,meteohub,2013-06-02 04:23:00,
2013-06-01 22:29:00,48.9,31.8,17.73,NW,306,0.0,5.0,26,-99.99,,,-99.99,meteohub,2013-06-02 04:29:00,
2013-06-01 22:34:00,48.6,31.8,17.73,NW,306,0.0,5.0,26,-99.99,,,-99.99,meteohub,2013-06-02 04:34:00,
2013-06-01 22:39:00,47.3,31.8,17.73,NW,306,0.0,2.0,26,-99.99,,,-99.99,meteohub,2013-06-02 04:39:00,
2013-06-01 22:44:00,46.9,31.8,17.73,North,353,0.0,0.0,26,-99.99,,,-99.99,meteohub,2013-06-02 04:44:00,
2013-06-01 22:49:00,47.1,31.8,17.73,East,79,0.0,4.0,26,-99.99,,,-99.99,meteohub,2013-06-02 04:49:00,
2013-06-01 22:54:00,46.9,32.5,17.73,East,79,0.0,4.0,27,-99.99,,,-99.99,meteohub,2013-06-02 04:54:00,
2013-06-01 22:59:00,46.8,32.5,17.73,East,79,0.0,4.0,27,-99.99,,,-99.99,meteohub,2013-06-02 04:59:00,
2013-06-01 23:05:00,46.8,32.5,17.73,East,79,0.0,0.0,27,-99.99,,,-99.99,meteohub,2013-06-02 05:05:00,
2013-06-01 23:10:00,46.8,32.5,17.73,East,79,0.0,0.0,27,-99.99,,,-99.99,meteohub,2013-06-02 05:10:00,
2013-06-01 23:15:00,46.6,32.5,17.73,East,79,0.0,0.0,27,-99.99,,,-99.99,meteohub,2013-06-02 05:15:00,
2013-06-01 23:20:00,45.9,32.5,17.73,East,79,0.0,0.0,27,-99.99,,,-99.99,meteohub,2013-06-02 05:20:00,
2013-06-01 23:25:00,45.5,32.4,17.73,East,79,0.0,0.0,27,-99.99,,,-99.99,meteohub,2013-06-02 05:25:00,
2013-06-01 23:30:00,44.8,32.4,17.73,East,79,0.0,0.0,27,-99.99,,,-99.99,meteohub,2013-06-02 05:30:00,
2013-06-01 23:35:00,44.8,32.2,17.73,East,79,0.0,0.0,27,-99.99,,,-99.99,meteohub,2013-06-02 05:35:00,
2013-06-01 23:41:00,44.6,32.2,17.73,East,79,0.0,0.0,27,-99.99,,,-99.99,meteohub,2013-06-02 05:41:00,
2013-06-01 23:46:00,44.2,32.0,17.73,East,79,0.0,0.0,27,-99.99,,,-99.99,meteohub,2013-06-02 05:46:00,
2013-06-01 23:51:00,44.6,32.0,17.73,East,79,0.0,0.0,27,-99.99,,,-99.99,meteohub,2013-06-02 05:51:00,
2013-06-01 23:56:00,44.4,32.0,17.73,East,79,0.0,0.0,27,-99.99,,,-99.99,meteohub,2013-06-02 05:56:00,